sensor_id;sensor_type;location;lat;lon;timestamp;P1;durP1;ratioP1;P2;durP2;ratioP2
83199;SDS011;73092;49.132;8.920;2023-12-22T00:01:51;4.90;;;2.37;;
83199;SDS011;73092;49.132;8.920;2023-12-22T00:04:16;4.63;;;2.33;;
83199;SDS011;73092;49.132;8.920;2023-12-22T00:06:41;8.88;;;2.33;;
83199;SDS011;73092;49.132;8.920;2023-12-22T00:09:07;2.97;;;2.22;;
83199;SDS011;73092;49.132;8.920;2023-12-22T00:11:32;2.30;;;1.85;;
83199;SDS011;73092;49.132;8.920;2023-12-22T00:13:58;4.93;;;2.33;;
83199;SDS011;73092;49.132;8.920;2023-12-22T00:16:23;2.23;;;1.73;;
83199;SDS011;73092;49.132;8.920;2023-12-22T00:18:48;2.13;;;1.57;;
83199;SDS011;73092;49.132;8.920;2023-12-22T00:21:14;5.40;;;1.63;;
83199;SDS011;73092;49.132;8.920;2023-12-22T00:23:39;2.47;;;1.25;;
83199;SDS011;73092;49.132;8.920;2023-12-22T00:26:07;4.53;;;1.63;;
83199;SDS011;73092;49.132;8.920;2023-12-22T00:28:33;2.80;;;1.95;;
83199;SDS011;73092;49.132;8.920;2023-12-22T00:30:58;2.10;;;1.90;;
83199;SDS011;73092;49.132;8.920;2023-12-22T00:33:26;3.83;;;1.53;;
83199;SDS011;73092;49.132;8.920;2023-12-22T00:35:52;6.00;;;1.92;;
83199;SDS011;73092;49.132;8.920;2023-12-22T00:38:17;6.60;;;2.55;;
83199;SDS011;73092;49.132;8.920;2023-12-22T00:40:42;1.93;;;1.73;;
83199;SDS011;73092;49.132;8.920;2023-12-22T00:43:08;5.90;;;2.00;;
83199;SDS011;73092;49.132;8.920;2023-12-22T00:45:33;3.10;;;1.77;;
83199;SDS011;73092;49.132;8.920;2023-12-22T00:47:58;4.40;;;2.00;;
83199;SDS011;73092;49.132;8.920;2023-12-22T00:50:24;3.33;;;1.93;;
83199;SDS011;73092;49.132;8.920;2023-12-22T00:52:49;3.28;;;1.83;;
83199;SDS011;73092;49.132;8.920;2023-12-22T00:55:14;4.30;;;2.27;;
83199;SDS011;73092;49.132;8.920;2023-12-22T00:57:40;2.23;;;2.03;;
83199;SDS011;73092;49.132;8.920;2023-12-22T01:00:05;1.90;;;1.50;;
83199;SDS011;73092;49.132;8.920;2023-12-22T01:02:35;3.38;;;1.83;;
83199;SDS011;73092;49.132;8.920;2023-12-22T01:05:00;2.00;;;1.73;;
83199;SDS011;73092;49.132;8.920;2023-12-22T01:07:25;3.63;;;2.33;;
83199;SDS011;73092;49.132;8.920;2023-12-22T01:09:51;2.43;;;1.87;;
83199;SDS011;73092;49.132;8.920;2023-12-22T01:12:16;4.28;;;2.75;;
83199;SDS011;73092;49.132;8.920;2023-12-22T01:14:41;2.13;;;1.90;;
83199;SDS011;73092;49.132;8.920;2023-12-22T01:17:10;2.97;;;2.35;;
83199;SDS011;73092;49.132;8.920;2023-12-22T01:19:35;7.32;;;1.85;;
83199;SDS011;73092;49.132;8.920;2023-12-22T01:22:01;2.00;;;1.80;;
83199;SDS011;73092;49.132;8.920;2023-12-22T01:24:26;3.57;;;1.83;;
83199;SDS011;73092;49.132;8.920;2023-12-22T01:26:51;1.80;;;1.70;;
83199;SDS011;73092;49.132;8.920;2023-12-22T01:29:16;4.23;;;1.70;;
83199;SDS011;73092;49.132;8.920;2023-12-22T01:31:42;4.07;;;2.13;;
83199;SDS011;73092;49.132;8.920;2023-12-22T01:34:07;2.10;;;1.77;;
83199;SDS011;73092;49.132;8.920;2023-12-22T01:36:33;6.57;;;1.93;;
83199;SDS011;73092;49.132;8.920;2023-12-22T01:38:59;2.90;;;1.80;;
83199;SDS011;73092;49.132;8.920;2023-12-22T01:41:24;1.90;;;1.80;;
83199;SDS011;73092;49.132;8.920;2023-12-22T01:43:50;2.80;;;2.00;;
83199;SDS011;73092;49.132;8.920;2023-12-22T01:46:15;2.77;;;2.23;;
83199;SDS011;73092;49.132;8.920;2023-12-22T01:48:41;9.02;;;2.38;;
83199;SDS011;73092;49.132;8.920;2023-12-22T01:51:07;5.33;;;2.33;;
83199;SDS011;73092;49.132;8.920;2023-12-22T01:53:33;4.80;;;2.25;;
83199;SDS011;73092;49.132;8.920;2023-12-22T01:55:59;2.92;;;2.30;;
83199;SDS011;73092;49.132;8.920;2023-12-22T01:58:27;4.82;;;2.65;;
83199;SDS011;73092;49.132;8.920;2023-12-22T02:00:54;4.38;;;2.58;;
83199;SDS011;73092;49.132;8.920;2023-12-22T02:03:20;8.85;;;2.47;;
83199;SDS011;73092;49.132;8.920;2023-12-22T02:05:46;4.40;;;2.53;;
83199;SDS011;73092;49.132;8.920;2023-12-22T02:08:12;8.70;;;2.70;;
83199;SDS011;73092;49.132;8.920;2023-12-22T02:10:38;4.40;;;3.38;;
83199;SDS011;73092;49.132;8.920;2023-12-22T02:13:05;6.70;;;4.28;;
83199;SDS011;73092;49.132;8.920;2023-12-22T02:15:31;5.93;;;2.38;;
83199;SDS011;73092;49.132;8.920;2023-12-22T02:18:09;6.65;;;2.95;;
83199;SDS011;73092;49.132;8.920;2023-12-22T02:20:37;11.15;;;2.97;;
83199;SDS011;73092;49.132;8.920;2023-12-22T02:23:03;14.68;;;4.47;;
83199;SDS011;73092;49.132;8.920;2023-12-22T02:25:28;5.17;;;2.73;;
83199;SDS011;73092;49.132;8.920;2023-12-22T02:27:56;6.67;;;2.70;;
83199;SDS011;73092;49.132;8.920;2023-12-22T02:32:59;14.07;;;3.33;;
83199;SDS011;73092;49.132;8.920;2023-12-22T02:35:26;7.03;;;2.50;;
83199;SDS011;73092;49.132;8.920;2023-12-22T02:37:54;6.03;;;2.90;;
83199;SDS011;73092;49.132;8.920;2023-12-22T02:40:22;9.13;;;3.45;;
83199;SDS011;73092;49.132;8.920;2023-12-22T02:42:49;6.20;;;2.50;;
83199;SDS011;73092;49.132;8.920;2023-12-22T02:45:17;7.60;;;2.15;;
83199;SDS011;73092;49.132;8.920;2023-12-22T02:47:44;12.43;;;2.35;;
83199;SDS011;73092;49.132;8.920;2023-12-22T02:50:10;7.50;;;1.88;;
83199;SDS011;73092;49.132;8.920;2023-12-22T02:52:38;10.50;;;3.20;;
83199;SDS011;73092;49.132;8.920;2023-12-22T02:55:03;7.53;;;2.73;;
83199;SDS011;73092;49.132;8.920;2023-12-22T02:57:29;6.65;;;2.40;;
83199;SDS011;73092;49.132;8.920;2023-12-22T02:59:55;5.65;;;2.42;;
83199;SDS011;73092;49.132;8.920;2023-12-22T03:02:21;7.05;;;2.25;;
83199;SDS011;73092;49.132;8.920;2023-12-22T03:04:46;9.93;;;2.50;;
83199;SDS011;73092;49.132;8.920;2023-12-22T03:07:12;7.17;;;2.73;;
83199;SDS011;73092;49.132;8.920;2023-12-22T03:09:37;7.82;;;2.70;;
83199;SDS011;73092;49.132;8.920;2023-12-22T03:12:03;6.72;;;2.88;;
83199;SDS011;73092;49.132;8.920;2023-12-22T03:14:29;6.32;;;2.20;;
83199;SDS011;73092;49.132;8.920;2023-12-22T03:16:56;8.70;;;2.78;;
83199;SDS011;73092;49.132;8.920;2023-12-22T03:19:21;5.23;;;2.30;;
83199;SDS011;73092;49.132;8.920;2023-12-22T03:21:47;7.75;;;2.30;;
83199;SDS011;73092;49.132;8.920;2023-12-22T03:24:13;7.00;;;2.53;;
83199;SDS011;73092;49.132;8.920;2023-12-22T03:26:38;9.63;;;3.40;;
83199;SDS011;73092;49.132;8.920;2023-12-22T03:29:04;6.20;;;2.80;;
83199;SDS011;73092;49.132;8.920;2023-12-22T03:31:30;8.93;;;3.00;;
83199;SDS011;73092;49.132;8.920;2023-12-22T03:33:55;8.93;;;2.28;;
83199;SDS011;73092;49.132;8.920;2023-12-22T03:36:21;13.48;;;3.33;;
83199;SDS011;73092;49.132;8.920;2023-12-22T03:38:46;5.88;;;2.65;;
83199;SDS011;73092;49.132;8.920;2023-12-22T03:41:12;7.93;;;2.80;;
83199;SDS011;73092;49.132;8.920;2023-12-22T03:43:37;8.53;;;2.93;;
83199;SDS011;73092;49.132;8.920;2023-12-22T03:46:02;10.63;;;2.80;;
83199;SDS011;73092;49.132;8.920;2023-12-22T03:48:28;8.88;;;2.53;;
83199;SDS011;73092;49.132;8.920;2023-12-22T03:50:53;5.07;;;2.53;;
83199;SDS011;73092;49.132;8.920;2023-12-22T03:53:18;4.40;;;2.30;;
83199;SDS011;73092;49.132;8.920;2023-12-22T03:55:44;12.20;;;2.33;;
83199;SDS011;73092;49.132;8.920;2023-12-22T03:58:10;6.93;;;2.50;;
83199;SDS011;73092;49.132;8.920;2023-12-22T04:00:35;9.77;;;2.90;;
83199;SDS011;73092;49.132;8.920;2023-12-22T04:03:00;9.70;;;3.57;;
83199;SDS011;73092;49.132;8.920;2023-12-22T04:05:27;10.55;;;2.50;;
83199;SDS011;73092;49.132;8.920;2023-12-22T04:07:52;5.63;;;2.63;;
83199;SDS011;73092;49.132;8.920;2023-12-22T04:10:20;5.75;;;1.98;;
83199;SDS011;73092;49.132;8.920;2023-12-22T04:12:46;7.37;;;2.03;;
83199;SDS011;73092;49.132;8.920;2023-12-22T04:15:11;5.30;;;2.17;;
83199;SDS011;73092;49.132;8.920;2023-12-22T04:17:39;4.72;;;2.13;;
83199;SDS011;73092;49.132;8.920;2023-12-22T04:20:06;10.85;;;1.98;;
83199;SDS011;73092;49.132;8.920;2023-12-22T04:22:32;5.40;;;1.95;;
83199;SDS011;73092;49.132;8.920;2023-12-22T04:24:57;7.47;;;2.17;;
83199;SDS011;73092;49.132;8.920;2023-12-22T04:27:22;7.03;;;3.30;;
83199;SDS011;73092;49.132;8.920;2023-12-22T04:29:47;13.73;;;2.83;;
83199;SDS011;73092;49.132;8.920;2023-12-22T04:32:13;4.90;;;2.07;;
83199;SDS011;73092;49.132;8.920;2023-12-22T04:34:38;7.10;;;2.40;;
83199;SDS011;73092;49.132;8.920;2023-12-22T04:37:03;2.83;;;2.20;;
83199;SDS011;73092;49.132;8.920;2023-12-22T04:39:29;5.23;;;2.23;;
83199;SDS011;73092;49.132;8.920;2023-12-22T04:41:54;7.03;;;2.23;;
83199;SDS011;73092;49.132;8.920;2023-12-22T04:44:19;12.27;;;3.13;;
83199;SDS011;73092;49.132;8.920;2023-12-22T04:46:45;8.63;;;2.17;;
83199;SDS011;73092;49.132;8.920;2023-12-22T04:49:10;6.63;;;1.97;;
83199;SDS011;73092;49.132;8.920;2023-12-22T04:51:35;5.63;;;2.10;;
83199;SDS011;73092;49.132;8.920;2023-12-22T04:54:01;11.10;;;2.50;;
83199;SDS011;73092;49.132;8.920;2023-12-22T04:56:26;10.73;;;3.77;;
83199;SDS011;73092;49.132;8.920;2023-12-22T04:58:51;5.50;;;1.98;;
83199;SDS011;73092;49.132;8.920;2023-12-22T05:01:17;8.43;;;2.47;;
83199;SDS011;73092;49.132;8.920;2023-12-22T05:03:43;10.48;;;3.08;;
83199;SDS011;73092;49.132;8.920;2023-12-22T05:06:08;6.90;;;2.77;;
83199;SDS011;73092;49.132;8.920;2023-12-22T05:08:34;7.15;;;2.67;;
83199;SDS011;73092;49.132;8.920;2023-12-22T05:10:59;7.00;;;2.17;;
83199;SDS011;73092;49.132;8.920;2023-12-22T05:13:24;12.30;;;2.80;;
83199;SDS011;73092;49.132;8.920;2023-12-22T05:15:50;6.47;;;2.30;;
83199;SDS011;73092;49.132;8.920;2023-12-22T05:18:15;5.73;;;2.60;;
83199;SDS011;73092;49.132;8.920;2023-12-22T05:20:41;9.35;;;2.22;;
83199;SDS011;73092;49.132;8.920;2023-12-22T05:23:06;5.50;;;2.10;;
83199;SDS011;73092;49.132;8.920;2023-12-22T05:25:31;7.93;;;2.43;;
83199;SDS011;73092;49.132;8.920;2023-12-22T05:27:57;9.93;;;2.87;;
83199;SDS011;73092;49.132;8.920;2023-12-22T05:30:22;4.53;;;2.53;;
83199;SDS011;73092;49.132;8.920;2023-12-22T05:32:47;6.60;;;2.25;;
83199;SDS011;73092;49.132;8.920;2023-12-22T05:35:13;9.90;;;2.73;;
83199;SDS011;73092;49.132;8.920;2023-12-22T05:37:38;10.25;;;2.80;;
83199;SDS011;73092;49.132;8.920;2023-12-22T05:40:04;8.07;;;2.47;;
83199;SDS011;73092;49.132;8.920;2023-12-22T05:42:31;12.50;;;3.35;;
83199;SDS011;73092;49.132;8.920;2023-12-22T05:44:57;12.45;;;3.47;;
83199;SDS011;73092;49.132;8.920;2023-12-22T05:47:23;10.48;;;2.80;;
83199;SDS011;73092;49.132;8.920;2023-12-22T05:49:48;16.23;;;4.07;;
83199;SDS011;73092;49.132;8.920;2023-12-22T05:52:14;15.10;;;3.27;;
83199;SDS011;73092;49.132;8.920;2023-12-22T05:54:39;11.57;;;3.10;;
83199;SDS011;73092;49.132;8.920;2023-12-22T05:57:04;7.00;;;2.90;;
83199;SDS011;73092;49.132;8.920;2023-12-22T05:59:31;5.85;;;2.45;;
83199;SDS011;73092;49.132;8.920;2023-12-22T06:01:57;13.40;;;3.40;;
83199;SDS011;73092;49.132;8.920;2023-12-22T06:04:26;14.15;;;3.47;;
83199;SDS011;73092;49.132;8.920;2023-12-22T06:06:51;11.57;;;3.60;;
83199;SDS011;73092;49.132;8.920;2023-12-22T06:09:16;14.55;;;5.00;;
83199;SDS011;73092;49.132;8.920;2023-12-22T06:11:43;11.80;;;3.10;;
83199;SDS011;73092;49.132;8.920;2023-12-22T06:14:09;15.43;;;2.83;;
83199;SDS011;73092;49.132;8.920;2023-12-22T06:16:35;13.00;;;3.30;;
83199;SDS011;73092;49.132;8.920;2023-12-22T06:19:00;8.83;;;3.50;;
83199;SDS011;73092;49.132;8.920;2023-12-22T06:21:25;13.97;;;2.93;;
83199;SDS011;73092;49.132;8.920;2023-12-22T06:23:51;16.33;;;4.80;;
83199;SDS011;73092;49.132;8.920;2023-12-22T06:26:16;15.70;;;3.10;;
83199;SDS011;73092;49.132;8.920;2023-12-22T06:28:41;12.90;;;3.63;;
83199;SDS011;73092;49.132;8.920;2023-12-22T06:31:07;8.57;;;2.85;;
83199;SDS011;73092;49.132;8.920;2023-12-22T06:33:34;12.27;;;3.58;;
83199;SDS011;73092;49.132;8.920;2023-12-22T06:35:59;13.97;;;3.13;;
83199;SDS011;73092;49.132;8.920;2023-12-22T06:38:24;9.60;;;2.70;;
83199;SDS011;73092;49.132;8.920;2023-12-22T06:40:50;16.47;;;3.27;;
83199;SDS011;73092;49.132;8.920;2023-12-22T06:43:15;10.77;;;3.33;;
83199;SDS011;73092;49.132;8.920;2023-12-22T06:45:41;13.05;;;4.05;;
83199;SDS011;73092;49.132;8.920;2023-12-22T06:48:07;10.68;;;3.63;;
83199;SDS011;73092;49.132;8.920;2023-12-22T06:50:34;9.57;;;3.53;;
83199;SDS011;73092;49.132;8.920;2023-12-22T06:53:01;13.40;;;3.20;;
83199;SDS011;73092;49.132;8.920;2023-12-22T06:55:27;11.10;;;2.65;;
83199;SDS011;73092;49.132;8.920;2023-12-22T06:57:52;13.80;;;2.87;;
83199;SDS011;73092;49.132;8.920;2023-12-22T07:00:18;15.82;;;3.55;;
83199;SDS011;73092;49.132;8.920;2023-12-22T07:02:44;12.18;;;3.65;;
83199;SDS011;73092;49.132;8.920;2023-12-22T07:07:35;8.47;;;4.00;;
83199;SDS011;73092;49.132;8.920;2023-12-22T07:10:01;14.90;;;2.90;;
83199;SDS011;73092;49.132;8.920;2023-12-22T07:12:26;9.30;;;2.43;;
83199;SDS011;73092;49.132;8.920;2023-12-22T07:14:51;10.30;;;3.40;;
83199;SDS011;73092;49.132;8.920;2023-12-22T07:17:17;5.03;;;2.57;;
83199;SDS011;73092;49.132;8.920;2023-12-22T07:19:42;6.83;;;2.50;;
83199;SDS011;73092;49.132;8.920;2023-12-22T07:22:07;9.77;;;2.80;;
83199;SDS011;73092;49.132;8.920;2023-12-22T07:24:33;19.33;;;3.33;;
83199;SDS011;73092;49.132;8.920;2023-12-22T07:26:59;5.93;;;2.83;;
83199;SDS011;73092;49.132;8.920;2023-12-22T07:29:24;5.63;;;3.03;;
83199;SDS011;73092;49.132;8.920;2023-12-22T07:31:49;6.83;;;2.30;;
83199;SDS011;73092;49.132;8.920;2023-12-22T07:34:15;4.88;;;2.85;;
83199;SDS011;73092;49.132;8.920;2023-12-22T07:36:41;5.40;;;2.72;;
83199;SDS011;73092;49.132;8.920;2023-12-22T07:39:07;8.57;;;3.17;;
83199;SDS011;73092;49.132;8.920;2023-12-22T07:41:34;9.82;;;3.85;;
83199;SDS011;73092;49.132;8.920;2023-12-22T07:43:59;8.38;;;2.88;;
83199;SDS011;73092;49.132;8.920;2023-12-22T07:46:26;7.55;;;2.35;;
83199;SDS011;73092;49.132;8.920;2023-12-22T07:48:53;11.30;;;2.58;;
83199;SDS011;73092;49.132;8.920;2023-12-22T07:51:18;7.90;;;3.03;;
83199;SDS011;73092;49.132;8.920;2023-12-22T07:53:44;8.90;;;2.45;;
83199;SDS011;73092;49.132;8.920;2023-12-22T07:56:09;7.70;;;2.23;;
83199;SDS011;73092;49.132;8.920;2023-12-22T07:58:35;7.57;;;2.47;;
83199;SDS011;73092;49.132;8.920;2023-12-22T08:01:01;7.20;;;2.70;;
83199;SDS011;73092;49.132;8.920;2023-12-22T08:03:27;15.60;;;3.10;;
83199;SDS011;73092;49.132;8.920;2023-12-22T08:05:53;12.43;;;2.33;;
83199;SDS011;73092;49.132;8.920;2023-12-22T08:08:19;11.27;;;3.50;;
83199;SDS011;73092;49.132;8.920;2023-12-22T08:10:44;16.00;;;2.60;;
83199;SDS011;73092;49.132;8.920;2023-12-22T08:13:09;13.60;;;2.53;;
83199;SDS011;73092;49.132;8.920;2023-12-22T08:15:35;7.87;;;2.93;;
83199;SDS011;73092;49.132;8.920;2023-12-22T08:18:00;12.10;;;4.03;;
83199;SDS011;73092;49.132;8.920;2023-12-22T08:20:25;13.73;;;3.63;;
83199;SDS011;73092;49.132;8.920;2023-12-22T08:22:51;13.63;;;4.07;;
83199;SDS011;73092;49.132;8.920;2023-12-22T08:25:16;13.30;;;3.20;;
83199;SDS011;73092;49.132;8.920;2023-12-22T08:27:45;17.92;;;3.95;;
83199;SDS011;73092;49.132;8.920;2023-12-22T08:30:11;13.00;;;3.67;;
83199;SDS011;73092;49.132;8.920;2023-12-22T08:32:37;16.25;;;3.25;;
83199;SDS011;73092;49.132;8.920;2023-12-22T08:35:03;10.98;;;3.78;;
83199;SDS011;73092;49.132;8.920;2023-12-22T08:37:32;13.68;;;4.85;;
83199;SDS011;73092;49.132;8.920;2023-12-22T08:39:57;17.63;;;4.28;;
83199;SDS011;73092;49.132;8.920;2023-12-22T08:42:25;23.67;;;4.30;;
83199;SDS011;73092;49.132;8.920;2023-12-22T08:44:51;30.63;;;5.47;;
83199;SDS011;73092;49.132;8.920;2023-12-22T08:47:17;14.70;;;3.65;;
83199;SDS011;73092;49.132;8.920;2023-12-22T08:49:42;15.90;;;3.70;;
83199;SDS011;73092;49.132;8.920;2023-12-22T08:52:07;21.00;;;4.03;;
83199;SDS011;73092;49.132;8.920;2023-12-22T08:54:33;15.75;;;3.85;;
83199;SDS011;73092;49.132;8.920;2023-12-22T08:57:00;13.13;;;4.95;;
83199;SDS011;73092;49.132;8.920;2023-12-22T08:59:26;21.15;;;4.45;;
83199;SDS011;73092;49.132;8.920;2023-12-22T09:01:51;22.48;;;3.97;;
83199;SDS011;73092;49.132;8.920;2023-12-22T09:04:16;21.17;;;5.50;;
83199;SDS011;73092;49.132;8.920;2023-12-22T09:06:42;10.75;;;4.13;;
83199;SDS011;73092;49.132;8.920;2023-12-22T09:09:07;17.30;;;4.93;;
83199;SDS011;73092;49.132;8.920;2023-12-22T09:11:34;29.60;;;5.47;;
83199;SDS011;73092;49.132;8.920;2023-12-22T09:13:59;17.30;;;5.33;;
83199;SDS011;73092;49.132;8.920;2023-12-22T09:16:24;16.37;;;5.50;;
83199;SDS011;73092;49.132;8.920;2023-12-22T09:18:50;18.27;;;4.80;;
83199;SDS011;73092;49.132;8.920;2023-12-22T09:21:16;21.98;;;5.65;;
83199;SDS011;73092;49.132;8.920;2023-12-22T09:23:45;29.27;;;4.97;;
83199;SDS011;73092;49.132;8.920;2023-12-22T09:26:14;18.75;;;4.72;;
83199;SDS011;73092;49.132;8.920;2023-12-22T09:28:41;14.75;;;3.75;;
83199;SDS011;73092;49.132;8.920;2023-12-22T09:31:07;18.77;;;5.05;;
83199;SDS011;73092;49.132;8.920;2023-12-22T09:33:33;19.13;;;4.60;;
83199;SDS011;73092;49.132;8.920;2023-12-22T09:35:58;22.92;;;4.65;;
83199;SDS011;73092;49.132;8.920;2023-12-22T09:38:24;16.80;;;4.77;;
83199;SDS011;73092;49.132;8.920;2023-12-22T09:40:52;15.67;;;4.70;;
83199;SDS011;73092;49.132;8.920;2023-12-22T09:43:18;23.85;;;4.22;;
83199;SDS011;73092;49.132;8.920;2023-12-22T09:45:51;17.05;;;4.65;;
83199;SDS011;73092;49.132;8.920;2023-12-22T09:48:18;35.00;;;5.03;;
83199;SDS011;73092;49.132;8.920;2023-12-22T09:50:45;19.05;;;4.10;;
83199;SDS011;73092;49.132;8.920;2023-12-22T09:53:12;21.08;;;4.40;;
83199;SDS011;73092;49.132;8.920;2023-12-22T09:55:38;18.20;;;4.55;;
83199;SDS011;73092;49.132;8.920;2023-12-22T09:58:08;17.55;;;4.20;;
83199;SDS011;73092;49.132;8.920;2023-12-22T10:00:33;17.27;;;5.38;;
83199;SDS011;73092;49.132;8.920;2023-12-22T10:03:01;25.55;;;6.68;;
83199;SDS011;73092;49.132;8.920;2023-12-22T10:05:27;24.55;;;5.53;;
83199;SDS011;73092;49.132;8.920;2023-12-22T10:07:54;24.23;;;7.05;;
83199;SDS011;73092;49.132;8.920;2023-12-22T10:10:21;19.30;;;4.53;;
83199;SDS011;73092;49.132;8.920;2023-12-22T10:12:47;21.83;;;4.55;;
83199;SDS011;73092;49.132;8.920;2023-12-22T10:15:12;22.63;;;4.10;;
83199;SDS011;73092;49.132;8.920;2023-12-22T10:17:39;21.58;;;4.82;;
83199;SDS011;73092;49.132;8.920;2023-12-22T10:20:06;18.30;;;4.47;;
83199;SDS011;73092;49.132;8.920;2023-12-22T10:22:31;29.77;;;5.95;;
83199;SDS011;73092;49.132;8.920;2023-12-22T10:24:57;21.37;;;4.53;;
83199;SDS011;73092;49.132;8.920;2023-12-22T10:27:22;26.88;;;4.90;;
83199;SDS011;73092;49.132;8.920;2023-12-22T10:29:51;26.35;;;4.07;;
83199;SDS011;73092;49.132;8.920;2023-12-22T10:32:19;17.63;;;5.05;;
83199;SDS011;73092;49.132;8.920;2023-12-22T10:34:46;17.63;;;4.05;;
83199;SDS011;73092;49.132;8.920;2023-12-22T10:37:11;27.57;;;4.83;;
83199;SDS011;73092;49.132;8.920;2023-12-22T10:39:38;21.00;;;4.13;;
83199;SDS011;73092;49.132;8.920;2023-12-22T10:42:04;22.52;;;4.93;;
83199;SDS011;73092;49.132;8.920;2023-12-22T10:44:30;19.15;;;5.15;;
83199;SDS011;73092;49.132;8.920;2023-12-22T10:46:56;26.08;;;4.28;;
83199;SDS011;73092;49.132;8.920;2023-12-22T10:49:22;20.20;;;4.07;;
83199;SDS011;73092;49.132;8.920;2023-12-22T10:51:48;30.80;;;5.35;;
83199;SDS011;73092;49.132;8.920;2023-12-22T10:54:13;16.85;;;4.75;;
83199;SDS011;73092;49.132;8.920;2023-12-22T10:56:39;21.42;;;4.90;;
83199;SDS011;73092;49.132;8.920;2023-12-22T10:59:05;26.08;;;3.88;;
83199;SDS011;73092;49.132;8.920;2023-12-22T11:01:32;23.02;;;3.70;;
83199;SDS011;73092;49.132;8.920;2023-12-22T11:04:02;15.25;;;4.30;;
83199;SDS011;73092;49.132;8.920;2023-12-22T11:06:29;24.48;;;4.18;;
83199;SDS011;73092;49.132;8.920;2023-12-22T11:08:56;23.10;;;5.32;;
83199;SDS011;73092;49.132;8.920;2023-12-22T11:11:26;17.35;;;4.93;;
83199;SDS011;73092;49.132;8.920;2023-12-22T11:13:59;15.27;;;3.97;;
83199;SDS011;73092;49.132;8.920;2023-12-22T11:16:25;22.50;;;3.85;;
83199;SDS011;73092;49.132;8.920;2023-12-22T11:18:53;16.33;;;4.68;;
83199;SDS011;73092;49.132;8.920;2023-12-22T11:21:24;23.00;;;5.47;;
83199;SDS011;73092;49.132;8.920;2023-12-22T11:23:50;21.40;;;3.92;;
83199;SDS011;73092;49.132;8.920;2023-12-22T11:26:17;23.73;;;5.10;;
83199;SDS011;73092;49.132;8.920;2023-12-22T11:28:44;14.75;;;5.03;;
83199;SDS011;73092;49.132;8.920;2023-12-22T11:31:14;18.92;;;3.65;;
83199;SDS011;73092;49.132;8.920;2023-12-22T11:33:47;22.25;;;4.53;;
83199;SDS011;73092;49.132;8.920;2023-12-22T11:36:14;20.42;;;6.00;;
83199;SDS011;73092;49.132;8.920;2023-12-22T11:38:41;24.30;;;4.90;;
83199;SDS011;73092;49.132;8.920;2023-12-22T11:41:26;16.75;;;4.13;;
83199;SDS011;73092;49.132;8.920;2023-12-22T11:43:55;22.48;;;3.95;;
83199;SDS011;73092;49.132;8.920;2023-12-22T11:46:23;20.70;;;4.20;;
83199;SDS011;73092;49.132;8.920;2023-12-22T11:48:49;22.65;;;3.83;;
83199;SDS011;73092;49.132;8.920;2023-12-22T11:51:16;12.00;;;3.67;;
83199;SDS011;73092;49.132;8.920;2023-12-22T11:53:43;23.05;;;4.10;;
83199;SDS011;73092;49.132;8.920;2023-12-22T11:56:09;14.02;;;3.35;;
83199;SDS011;73092;49.132;8.920;2023-12-22T11:58:40;16.95;;;3.95;;
83199;SDS011;73092;49.132;8.920;2023-12-22T12:01:19;15.10;;;3.33;;
83199;SDS011;73092;49.132;8.920;2023-12-22T12:03:54;12.68;;;3.60;;
83199;SDS011;73092;49.132;8.920;2023-12-22T12:08:55;8.77;;;3.25;;
83199;SDS011;73092;49.132;8.920;2023-12-22T12:12:09;13.75;;;3.60;;
83199;SDS011;73092;49.132;8.920;2023-12-22T12:14:32;10.70;;;3.42;;
83199;SDS011;73092;49.132;8.920;2023-12-22T12:17:00;11.82;;;2.92;;
83199;SDS011;73092;49.132;8.920;2023-12-22T12:19:33;10.30;;;3.72;;
83199;SDS011;73092;49.132;8.920;2023-12-22T12:22:06;9.02;;;3.22;;
83199;SDS011;73092;49.132;8.920;2023-12-22T12:24:32;7.20;;;3.20;;
83199;SDS011;73092;49.132;8.920;2023-12-22T12:26:58;6.45;;;2.63;;
83199;SDS011;73092;49.132;8.920;2023-12-22T12:29:23;11.77;;;3.20;;
83199;SDS011;73092;49.132;8.920;2023-12-22T12:31:49;12.27;;;2.70;;
83199;SDS011;73092;49.132;8.920;2023-12-22T12:34:15;9.55;;;3.15;;
83199;SDS011;73092;49.132;8.920;2023-12-22T12:36:45;7.90;;;2.67;;
83199;SDS011;73092;49.132;8.920;2023-12-22T12:39:14;11.95;;;2.22;;
83199;SDS011;73092;49.132;8.920;2023-12-22T12:41:40;8.05;;;2.30;;
83199;SDS011;73092;49.132;8.920;2023-12-22T12:44:09;4.68;;;2.60;;
83199;SDS011;73092;49.132;8.920;2023-12-22T12:46:35;4.70;;;2.58;;
83199;SDS011;73092;49.132;8.920;2023-12-22T12:49:09;5.88;;;2.60;;
83199;SDS011;73092;49.132;8.920;2023-12-22T12:51:42;3.08;;;2.67;;
83199;SDS011;73092;49.132;8.920;2023-12-22T12:54:09;6.68;;;3.00;;
83199;SDS011;73092;49.132;8.920;2023-12-22T12:56:36;7.82;;;2.45;;
83199;SDS011;73092;49.132;8.920;2023-12-22T12:59:14;4.10;;;2.25;;
83199;SDS011;73092;49.132;8.920;2023-12-22T13:01:41;3.88;;;2.80;;
83199;SDS011;73092;49.132;8.920;2023-12-22T13:04:10;6.25;;;2.83;;
83199;SDS011;73092;49.132;8.920;2023-12-22T13:06:49;6.90;;;3.35;;
83199;SDS011;73092;49.132;8.920;2023-12-22T13:09:15;7.30;;;2.53;;
83199;SDS011;73092;49.132;8.920;2023-12-22T13:11:41;7.15;;;3.58;;
83199;SDS011;73092;49.132;8.920;2023-12-22T13:14:08;8.27;;;2.80;;
83199;SDS011;73092;49.132;8.920;2023-12-22T13:16:34;8.55;;;3.53;;
83199;SDS011;73092;49.132;8.920;2023-12-22T13:19:00;4.18;;;2.78;;
83199;SDS011;73092;49.132;8.920;2023-12-22T13:21:26;4.43;;;2.83;;
83199;SDS011;73092;49.132;8.920;2023-12-22T13:26:38;2.83;;;2.50;;
83199;SDS011;73092;49.132;8.920;2023-12-22T13:29:04;7.38;;;3.28;;
83199;SDS011;73092;49.132;8.920;2023-12-22T13:31:31;3.63;;;2.35;;
83199;SDS011;73092;49.132;8.920;2023-12-22T13:33:57;3.70;;;2.53;;
83199;SDS011;73092;49.132;8.920;2023-12-22T13:36:23;9.00;;;2.95;;
83199;SDS011;73092;49.132;8.920;2023-12-22T13:38:48;5.53;;;2.42;;
83199;SDS011;73092;49.132;8.920;2023-12-22T13:41:14;5.40;;;2.58;;
83199;SDS011;73092;49.132;8.920;2023-12-22T13:43:41;4.82;;;2.70;;
83199;SDS011;73092;49.132;8.920;2023-12-22T13:46:06;5.38;;;2.58;;
83199;SDS011;73092;49.132;8.920;2023-12-22T13:48:36;6.05;;;2.92;;
83199;SDS011;73092;49.132;8.920;2023-12-22T13:51:01;6.63;;;2.97;;
83199;SDS011;73092;49.132;8.920;2023-12-22T13:53:28;4.65;;;2.70;;
83199;SDS011;73092;49.132;8.920;2023-12-22T13:55:57;2.47;;;2.28;;
83199;SDS011;73092;49.132;8.920;2023-12-22T13:58:25;3.35;;;2.63;;
83199;SDS011;73092;49.132;8.920;2023-12-22T14:00:52;5.07;;;2.25;;
83199;SDS011;73092;49.132;8.920;2023-12-22T14:03:18;4.85;;;2.67;;
83199;SDS011;73092;49.132;8.920;2023-12-22T14:05:49;3.47;;;2.17;;
83199;SDS011;73092;49.132;8.920;2023-12-22T14:08:18;5.13;;;1.95;;
83199;SDS011;73092;49.132;8.920;2023-12-22T14:10:47;4.57;;;2.40;;
83199;SDS011;73092;49.132;8.920;2023-12-22T14:13:13;4.00;;;2.25;;
83199;SDS011;73092;49.132;8.920;2023-12-22T14:15:41;2.40;;;2.20;;
83199;SDS011;73092;49.132;8.920;2023-12-22T14:18:07;2.13;;;1.92;;
83199;SDS011;73092;49.132;8.920;2023-12-22T14:20:33;2.45;;;1.65;;
83199;SDS011;73092;49.132;8.920;2023-12-22T14:22:58;5.03;;;2.43;;
83199;SDS011;73092;49.132;8.920;2023-12-22T14:25:23;2.00;;;1.57;;
83199;SDS011;73092;49.132;8.920;2023-12-22T14:27:51;2.88;;;1.83;;
83199;SDS011;73092;49.132;8.920;2023-12-22T14:30:17;5.13;;;2.33;;
83199;SDS011;73092;49.132;8.920;2023-12-22T14:32:43;2.40;;;2.20;;
83199;SDS011;73092;49.132;8.920;2023-12-22T14:35:08;2.70;;;2.13;;
83199;SDS011;73092;49.132;8.920;2023-12-22T14:37:33;2.30;;;1.97;;
83199;SDS011;73092;49.132;8.920;2023-12-22T14:39:59;2.95;;;2.22;;
83199;SDS011;73092;49.132;8.920;2023-12-22T14:42:24;2.20;;;1.70;;
83199;SDS011;73092;49.132;8.920;2023-12-22T14:44:49;5.10;;;1.90;;
83199;SDS011;73092;49.132;8.920;2023-12-22T14:47:15;4.50;;;2.03;;
83199;SDS011;73092;49.132;8.920;2023-12-22T14:49:40;2.07;;;1.73;;